Time;durP1;ratioP1;P1;durP2;ratioP2;P2;SDS_P1;SDS_P2;PMS_P1;PMS_P2;Temp;Humidity;BMP_temperature;BMP_pressure;BME280_temperature;BME280_humidity;BME280_pressure;Samples;Min_cycle;Max_cycle;Signal;HPM_P1;HPM_P2
2023/09/25 00:01:53;;;;;;;1.38;0.40;;;13.50;99.90;;;;;;5115831;28;20444;-57
2023/09/25 00:04:24;;;;;;;1.67;0.47;;;13.50;90.70;;;;;;5115872;28;20812;-57
2023/09/25 00:06:52;;;;;;;0.90;0.50;;;13.40;99.90;;;;;;5115822;28;20705;-57
2023/09/25 00:09:19;;;;;;;0.95;0.50;;;13.50;99.90;;;;;;5115407;28;20424;-57
2023/09/25 00:11:47;;;;;;;1.10;0.50;;;13.60;99.90;;;;;;5115840;28;20871;-57
2023/09/25 00:14:14;;;;;;;1.10;0.60;;;13.60;1.00;;;;;;5116102;28;20431;-55
2023/09/25 00:16:41;;;;;;;0.87;0.50;;;13.60;94.00;;;;;;5115454;28;20446;-53
2023/09/25 00:19:08;;;;;;;1.13;0.50;;;13.50;1.00;;;;;;5115647;28;20897;-54
2023/09/25 00:21:35;;;;;;;0.90;0.50;;;13.40;99.90;;;;;;5115646;28;20416;-57
2023/09/25 00:24:04;;;;;;;1.50;0.50;;;13.40;99.90;;;;;;5116135;28;20459;-56
2023/09/25 00:26:32;;;;;;;0.70;0.40;;;13.40;99.90;;;;;;5115521;28;20424;-57
2023/09/25 00:29:00;;;;;;;1.00;0.50;;;13.30;99.90;;;;;;5104367;28;20481;-55
2023/09/25 00:31:27;;;;;;;0.82;0.40;;;13.40;1.00;;;;;;5092175;28;20430;-58
2023/09/25 00:33:54;;;;;;;1.23;0.50;;;13.30;1.00;;;;;;5115880;28;20783;-55
2023/09/25 00:36:23;;;;;;;0.88;0.40;;;13.30;99.90;;;;;;5115768;28;20479;-56
2023/09/25 00:38:51;;;;;;;0.90;0.40;;;13.30;1.00;;;;;;5098153;28;20424;-57
2023/09/25 00:41:20;;;;;;;0.93;0.50;;;13.20;99.90;;;;;;5114652;28;20504;-55
2023/09/25 00:43:47;;;;;;;0.70;0.40;;;13.10;1.00;;;;;;5115526;28;20415;-57
2023/09/25 00:46:15;;;;;;;0.88;0.50;;;13.10;1.00;;;;;;5119026;28;20416;-57
2023/09/25 00:48:42;;;;;;;0.80;0.40;;;13.00;1.00;;;;;;5119749;28;20508;-54
2023/09/25 00:51:10;;;;;;;0.77;0.50;;;13.00;1.00;;;;;;5119690;28;20914;-57
2023/09/25 00:53:40;;;;;;;1.33;0.40;;;13.00;1.00;;;;;;5119790;28;20453;-56
2023/09/25 00:56:08;;;;;;;0.85;0.50;;;13.00;1.00;;;;;;5119601;28;20424;-55
2023/09/25 00:58:36;;;;;;;1.00;0.40;;;13.00;1.00;;;;;;5118970;28;20719;-56
2023/09/25 01:01:03;;;;;;;0.90;0.50;;;13.00;54.40;;;;;;5119150;28;20416;-57
2023/09/25 01:03:31;;;;;;;0.90;0.50;;;13.00;99.90;;;;;;5118409;28;20424;-57
2023/09/25 01:05:59;;;;;;;0.80;0.40;;;13.00;10.30;;;;;;5118518;28;20423;-55
2023/09/25 01:08:27;;;;;;;1.50;0.50;;;13.10;1.00;;;;;;5118361;28;20430;-57
2023/09/25 01:10:55;;;;;;;0.90;0.40;;;13.20;1.00;;;;;;5118773;28;20494;-57
2023/09/25 01:13:22;;;;;;;0.90;0.40;;;13.10;1.00;;;;;;5117420;28;20428;-57
2023/09/25 01:15:51;;;;;;;0.73;0.40;;;13.10;1.00;;;;;;5100936;28;20427;-57
2023/09/25 01:18:18;;;;;;;1.60;0.50;;;13.20;1.00;;;;;;5116886;28;20419;-57
2023/09/25 01:20:45;;;;;;;0.80;0.40;;;13.30;99.90;;;;;;5117495;28;20420;-56
2023/09/25 01:23:14;;;;;;;0.80;0.40;;;13.30;99.90;;;;;;5118214;28;20408;-57
2023/09/25 01:25:41;;;;;;;0.95;0.47;;;13.30;99.90;;;;;;5118487;28;20431;-57
2023/09/25 01:28:09;;;;;;;0.80;0.40;;;13.20;99.90;;;;;;5118472;28;20502;-56
2023/09/25 01:30:36;;;;;;;1.30;0.40;;;13.20;99.90;;;;;;5117855;28;20839;-58
2023/09/25 01:33:04;;;;;;;1.70;0.50;;;13.30;99.90;;;;;;5118510;28;20831;-57
2023/09/25 01:35:31;;;;;;;1.40;0.50;;;13.30;99.90;;;;;;5118976;28;20700;-57
2023/09/25 01:38:00;;;;;;;0.70;0.50;;;13.20;99.90;;;;;;5118728;28;20423;-53
2023/09/25 01:40:28;;;;;;;1.30;0.40;;;13.20;99.90;;;;;;5118784;28;20424;-63
2023/09/25 01:42:56;;;;;;;0.90;0.40;;;13.20;1.00;;;;;;5119109;28;20703;-57
2023/09/25 01:45:23;;;;;;;0.80;0.40;;;13.20;99.90;;;;;;5118964;28;20424;-58
2023/09/25 01:47:52;;;;;;;0.90;0.50;;;13.20;99.90;;;;;;5110406;28;20427;-57
2023/09/25 01:50:20;;;;;;;1.10;0.50;;;13.10;1.00;;;;;;5094134;28;20421;-54
2023/09/25 01:52:48;;;;;;;0.73;0.40;;;12.90;1.00;;;;;;5097039;28;20445;-56
2023/09/25 01:55:16;;;;;;;2.00;0.50;;;12.90;1.00;;;;;;5096786;28;20426;-56
2023/09/25 01:57:44;;;;;;;0.90;0.40;;;12.90;1.00;;;;;;5095223;28;20516;-57
2023/09/25 02:00:13;;;;;;;0.80;0.40;;;12.90;99.90;;;;;;5095279;28;20881;-57
2023/09/25 02:02:41;;;;;;;2.15;0.45;;;12.90;99.90;;;;;;5095226;28;20414;-57
2023/09/25 02:05:09;;;;;;;0.95;0.40;;;12.90;99.90;;;;;;5095784;28;20410;-57
2023/09/25 02:07:36;;;;;;;0.60;0.40;;;12.90;99.90;;;;;;5095777;28;20444;-58
2023/09/25 02:10:03;;;;;;;0.87;0.50;;;12.90;1.00;;;;;;5116665;28;20451;-54
2023/09/25 02:12:31;;;;;;;1.00;0.40;;;12.80;1.00;;;;;;5116778;28;20428;-56
2023/09/25 02:15:03;;;;;;;0.75;0.50;;;12.70;99.90;;;;;;5117500;28;20428;-57
2023/09/25 02:17:30;;;;;;;1.00;0.40;;;12.80;1.00;;;;;;5117861;28;20413;-56
2023/09/25 02:20:08;;;;;;;0.80;0.40;;;12.70;99.90;;;;;;5118055;28;20412;-57
2023/09/25 02:22:35;;;;;;;0.77;0.40;;;12.80;99.90;;;;;;5117491;28;20416;-56
2023/09/25 02:25:03;;;;;;;1.27;0.40;;;12.80;1.00;;;;;;5117444;28;20720;-56
2023/09/25 02:27:30;;;;;;;0.82;0.40;;;12.80;38.00;;;;;;5116393;28;20427;-57
2023/09/25 02:29:57;;;;;;;1.73;0.40;;;12.80;99.90;;;;;;5116504;28;20424;-58
2023/09/25 02:32:26;;;;;;;0.80;0.50;;;12.60;83.70;;;;;;5115999;28;20773;-58
2023/09/25 02:34:53;;;;;;;1.30;0.50;;;12.60;1.00;;;;;;5116397;28;20830;-57
2023/09/25 02:37:20;;;;;;;0.80;0.40;;;12.60;1.00;;;;;;5116813;28;20430;-57
2023/09/25 02:39:47;;;;;;;1.20;0.50;;;12.60;1.00;;;;;;5116615;28;20428;-57
2023/09/25 02:42:14;;;;;;;0.63;0.40;;;12.60;99.90;;;;;;5116813;28;20419;-56
2023/09/25 02:44:41;;;;;;;0.80;0.50;;;12.50;1.00;;;;;;5117542;28;20416;-56
2023/09/25 02:47:09;;;;;;;0.70;0.40;;;12.40;1.00;;;;;;5117521;28;20419;-57
2023/09/25 02:49:37;;;;;;;0.80;0.50;;;12.40;1.00;;;;;;5117957;28;20420;-57
2023/09/25 02:52:04;;;;;;;1.00;0.50;;;12.40;1.00;;;;;;5117326;28;20852;-56
2023/09/25 02:54:32;;;;;;;0.88;0.43;;;12.40;1.00;;;;;;5117809;28;20427;-56
2023/09/25 02:56:59;;;;;;;0.90;0.40;;;12.40;99.90;;;;;;5117499;28;20453;-57
2023/09/25 02:59:26;;;;;;;0.85;0.40;;;12.50;99.90;;;;;;5117211;28;20418;-56
2023/09/25 03:01:53;;;;;;;0.70;0.40;;;12.50;59.60;;;;;;5117456;28;20420;-53
2023/09/25 03:04:21;;;;;;;0.70;0.40;;;12.40;99.90;;;;;;5116553;28;20914;-53
2023/09/25 03:06:50;;;;;;;1.50;0.35;;;12.40;99.90;;;;;;5117284;28;20481;-55
2023/09/25 03:09:18;;;;;;;1.40;0.40;;;12.40;1.00;;;;;;5116788;28;20423;-57
2023/09/25 03:11:45;;;;;;;1.13;0.50;;;12.30;1.00;;;;;;5117115;28;20420;-56
2023/09/25 03:14:12;;;;;;;0.80;0.50;;;12.20;1.00;;;;;;5116959;28;20416;-57
2023/09/25 03:16:40;;;;;;;0.80;0.50;;;12.30;99.90;;;;;;5116765;28;20434;-57
2023/09/25 03:19:07;;;;;;;0.77;0.40;;;12.30;1.00;;;;;;5117832;28;20420;-57
2023/09/25 03:21:34;;;;;;;0.80;0.40;;;12.40;1.00;;;;;;5117295;28;20459;-55
2023/09/25 03:24:03;;;;;;;0.83;0.40;;;12.40;1.00;;;;;;5116056;28;20416;-56
2023/09/25 03:26:30;;;;;;;0.80;0.40;;;12.40;1.00;;;;;;5116889;28;20465;-56
2023/09/25 03:28:58;;;;;;;0.97;0.50;;;12.40;99.90;;;;;;5116720;28;20416;-55
2023/09/25 03:31:25;;;;;;;0.60;0.40;;;12.30;1.00;;;;;;5116923;28;20501;-56
2023/09/25 03:33:52;;;;;;;1.10;0.43;;;12.40;1.00;;;;;;5116039;28;20859;-57
2023/09/25 03:36:19;;;;;;;0.88;0.50;;;12.20;1.00;;;;;;5116966;28;20511;-55
2023/09/25 03:38:46;;;;;;;0.73;0.40;;;12.20;99.90;;;;;;5116111;28;20424;-55
2023/09/25 03:41:15;;;;;;;1.10;0.50;;;12.20;1.00;;;;;;5115853;28;20416;-57
2023/09/25 03:43:42;;;;;;;1.48;0.50;;;12.10;1.00;;;;;;5116444;28;20420;-56
2023/09/25 03:46:09;;;;;;;0.77;0.40;;;12.10;99.90;;;;;;5116667;28;20881;-56
2023/09/25 03:48:36;;;;;;;1.00;0.47;;;12.10;75.20;;;;;;5115200;28;20419;-54
2023/09/25 03:51:04;;;;;;;1.03;0.50;;;12.20;99.90;;;;;;5113278;28;20923;-57
2023/09/25 03:53:31;;;;;;;0.80;0.50;;;12.10;1.00;;;;;;5112807;28;20434;-57
2023/09/25 03:55:58;;;;;;;1.30;0.40;;;12.20;99.90;;;;;;5113083;28;20409;-55
2023/09/25 03:58:26;;;;;;;0.70;0.40;;;12.20;1.00;;;;;;5111412;28;20727;-53
2023/09/25 04:00:54;;;;;;;1.00;0.40;;;12.20;1.00;;;;;;5111570;28;20424;-55
2023/09/25 04:03:21;;;;;;;0.68;0.40;;;12.20;15.40;;;;;;5095654;28;20431;-57
2023/09/25 04:05:48;;;;;;;0.85;0.50;;;12.30;10.40;;;;;;5114391;28;20422;-54
2023/09/25 04:08:15;;;;;;;0.80;0.40;;;12.20;1.00;;;;;;5113042;28;20421;-56
2023/09/25 04:10:43;;;;;;;0.80;0.40;;;12.20;1.00;;;;;;5113789;28;20427;-56
2023/09/25 04:13:11;;;;;;;0.93;0.50;;;12.20;1.00;;;;;;5113493;28;20428;-57
2023/09/25 04:15:40;;;;;;;2.30;0.50;;;12.00;1.00;;;;;;5112237;28;20420;-56
2023/09/25 04:18:08;;;;;;;1.00;0.50;;;12.00;99.90;;;;;;5100473;28;20439;-54
2023/09/25 04:20:35;;;;;;;0.75;0.50;;;12.00;99.90;;;;;;5109844;28;20446;-54
2023/09/25 04:23:03;;;;;;;0.93;0.50;;;12.00;1.00;;;;;;5112587;28;20444;-55
2023/09/25 04:25:31;;;;;;;1.05;0.50;;;12.00;1.00;;;;;;5112522;28;20753;-56
2023/09/25 04:27:59;;;;;;;1.60;0.50;;;12.00;99.90;;;;;;5113703;28;20932;-55
2023/09/25 04:30:27;;;;;;;1.20;0.50;;;11.90;99.90;;;;;;5111881;28;20424;-57
2023/09/25 04:32:56;;;;;;;1.10;0.60;;;11.90;1.00;;;;;;5113025;28;20443;-53
2023/09/25 04:35:24;;;;;;;1.10;0.50;;;11.90;1.00;;;;;;5113379;28;20440;-55
2023/09/25 04:37:52;;;;;;;1.00;0.60;;;11.90;1.00;;;;;;5113735;28;20413;-56
2023/09/25 04:40:30;;;;;;;0.85;0.57;;;11.90;1.00;;;;;;5114064;28;20424;-56
2023/09/25 04:42:58;;;;;;;1.20;0.60;;;11.90;99.90;;;;;;5113193;28;20838;-55
2023/09/25 04:45:25;;;;;;;1.33;0.50;;;11.80;1.00;;;;;;5112131;28;20424;-57
2023/09/25 04:47:53;;;;;;;1.00;0.50;;;11.60;1.00;;;;;;5111634;28;20847;-56
2023/09/25 04:50:21;;;;;;;0.80;0.50;;;11.50;33.10;;;;;;5111747;28;20412;-54
2023/09/25 04:52:49;;;;;;;0.80;0.50;;;11.40;99.10;;;;;;5111710;28;20434;-56
2023/09/25 04:55:17;;;;;;;1.00;0.50;;;11.40;99.90;;;;;;5111954;28;20909;-56
2023/09/25 04:57:46;;;;;;;1.02;0.50;;;11.50;99.90;;;;;;5112305;28;20442;-54
2023/09/25 05:00:25;;;;;;;0.93;0.50;;;11.50;99.90;;;;;;5111172;28;20529;-56
2023/09/25 05:02:53;;;;;;;0.90;0.50;;;11.60;7.60;;;;;;5111993;28;20432;-57
2023/09/25 05:05:22;;;;;;;1.07;0.50;;;11.90;1.00;;;;;;5111930;28;20407;-55
2023/09/25 05:07:51;;;;;;;1.00;0.60;;;12.00;88.00;;;;;;5110255;28;20852;-55
2023/09/25 05:10:22;;;;;;;0.90;0.47;;;12.40;1.00;;;;;;5109277;28;20654;-55
2023/09/25 05:12:49;;;;;;;0.70;0.50;;;12.40;99.90;;;;;;5109757;28;20586;-56
2023/09/25 05:15:17;;;;;;;1.30;0.50;;;12.40;99.90;;;;;;5110947;28;20432;-57
2023/09/25 05:17:45;;;;;;;1.50;0.50;;;12.40;99.90;;;;;;5103211;28;20431;-54
2023/09/25 05:20:15;;;;;;;2.85;0.60;;;12.30;77.40;;;;;;5101602;28;20408;-52
2023/09/25 05:22:45;;;;;;;1.05;0.57;;;12.40;99.90;;;;;;5111108;28;20457;-51
2023/09/25 05:25:14;;;;;;;1.00;0.50;;;12.40;99.90;;;;;;5110897;28;20434;-54
2023/09/25 05:27:43;;;;;;;1.30;0.57;;;12.50;29.10;;;;;;5108823;28;20424;-56
2023/09/25 05:30:12;;;;;;;0.90;0.50;;;12.70;1.00;;;;;;5112152;28;20424;-56
2023/09/25 05:32:40;;;;;;;1.30;0.70;;;12.50;1.00;;;;;;5116197;28;20842;-59
2023/09/25 05:35:09;;;;;;;1.00;0.50;;;12.40;1.00;;;;;;5114863;28;20412;-59
2023/09/25 05:37:36;;;;;;;1.10;0.50;;;12.30;1.00;;;;;;5112999;28;20428;-58
2023/09/25 05:40:07;;;;;;;1.03;0.50;;;12.10;37.50;;;;;;5114160;28;20813;-59
2023/09/25 05:42:34;;;;;;;1.80;0.60;;;11.90;1.00;;;;;;5114538;28;20424;-59
2023/09/25 05:45:01;;;;;;;1.20;0.60;;;11.80;1.00;;;;;;5116563;28;20426;-59
2023/09/25 05:47:28;;;;;;;0.93;0.50;;;11.40;1.00;;;;;;5114658;28;20408;-59
2023/09/25 05:49:55;;;;;;;1.00;0.50;;;11.30;99.90;;;;;;5102228;28;20821;-59
2023/09/25 05:52:23;;;;;;;1.00;0.60;;;11.30;99.90;;;;;;5116023;28;20750;-59
2023/09/25 05:54:51;;;;;;;1.80;0.60;;;11.40;99.90;;;;;;5113502;28;20823;-59
2023/09/25 05:57:19;;;;;;;1.30;0.50;;;11.50;99.90;;;;;;5113863;28;20435;-59
2023/09/25 05:59:46;;;;;;;0.98;0.63;;;11.70;99.90;;;;;;5114751;28;20859;-58
2023/09/25 06:02:13;;;;;;;1.88;0.60;;;11.90;89.00;;;;;;5115033;28;20480;-59
2023/09/25 06:04:41;;;;;;;1.60;0.60;;;12.00;46.20;;;;;;5113447;28;20427;-55
2023/09/25 06:07:08;;;;;;;2.00;0.70;;;12.10;1.00;;;;;;5113558;28;20438;-56
2023/09/25 06:09:35;;;;;;;1.20;0.60;;;12.10;1.00;;;;;;5116137;28;20715;-57
2023/09/25 06:12:02;;;;;;;1.17;0.60;;;12.20;1.00;;;;;;5116495;28;20431;-56
2023/09/25 06:14:30;;;;;;;1.55;0.60;;;12.10;99.90;;;;;;5106368;28;20807;-54
2023/09/25 06:16:59;;;;;;;1.50;0.50;;;12.20;1.00;;;;;;5124116;27;20429;-55
2023/09/25 06:19:26;;;;;;;0.90;0.60;;;12.40;1.00;;;;;;5147345;27;20435;-55
2023/09/25 06:21:53;;;;;;;0.90;0.60;;;12.40;99.90;;;;;;5144003;27;20712;-52
2023/09/25 06:24:21;;;;;;;1.20;0.60;;;12.30;99.90;;;;;;5157080;27;20520;-52
2023/09/25 06:26:49;;;;;;;0.90;0.60;;;12.30;99.90;;;;;;5145337;27;20488;-55
2023/09/25 06:29:17;;;;;;;1.20;0.60;;;12.20;99.90;;;;;;5137535;27;20414;-53
2023/09/25 06:31:46;;;;;;;1.65;0.60;;;12.30;1.00;;;;;;5136615;27;20426;-53
2023/09/25 06:34:13;;;;;;;0.80;0.50;;;12.60;99.90;;;;;;5146239;27;20431;-52
2023/09/25 06:36:40;;;;;;;1.73;0.50;;;12.60;99.90;;;;;;5157540;27;20523;-52
2023/09/25 06:39:09;;;;;;;1.30;0.70;;;12.70;99.90;;;;;;5157416;27;20750;-52
2023/09/25 06:41:37;;;;;;;1.70;0.70;;;12.80;1.00;;;;;;5154959;27;20409;-54
2023/09/25 06:44:06;;;;;;;2.60;0.60;;;12.80;1.00;;;;;;5149153;27;20849;-53
2023/09/25 06:46:33;;;;;;;1.60;0.60;;;12.70;99.90;;;;;;5136323;27;20746;-53
2023/09/25 06:49:02;;;;;;;0.90;0.60;;;12.50;1.00;;;;;;5143978;27;20436;-52
2023/09/25 06:51:31;;;;;;;1.98;0.70;;;12.40;99.90;;;;;;5156864;27;20509;-54
2023/09/25 06:53:58;;;;;;;1.60;0.60;;;12.30;1.00;;;;;;5149208;27;20429;-55
2023/09/25 06:56:25;;;;;;;1.20;0.60;;;12.40;1.00;;;;;;5155708;27;20459;-54
2023/09/25 06:58:53;;;;;;;1.30;0.60;;;12.60;1.00;;;;;;5148786;27;20743;-52
2023/09/25 07:01:21;;;;;;;1.02;0.60;;;12.70;99.90;;;;;;5135903;27;20438;-55
2023/09/25 07:03:48;;;;;;;1.20;0.68;;;12.70;1.00;;;;;;5133079;27;20418;-51
2023/09/25 07:06:17;;;;;;;1.50;0.60;;;12.80;1.00;;;;;;5148226;27;20433;-55
2023/09/25 07:08:44;;;;;;;1.10;0.60;;;12.90;99.90;;;;;;5156648;27;20463;-53
2023/09/25 07:11:11;;;;;;;1.30;0.70;;;13.10;99.90;;;;;;5146620;27;20437;-53
2023/09/25 07:13:38;;;;;;;1.80;0.60;;;13.20;1.00;;;;;;5134668;27;20465;-54
2023/09/25 07:16:08;;;;;;;1.20;0.60;;;13.10;99.90;;;;;;5143298;27;20464;-53
2023/09/25 07:18:36;;;;;;;6.47;0.80;;;13.20;99.90;;;;;;5127450;27;20767;-54
2023/09/25 07:21:03;;;;;;;1.30;0.50;;;13.10;16.10;;;;;;5156074;27;20903;-54
2023/09/25 07:23:32;;;;;;;1.63;0.50;;;13.30;99.90;;;;;;5151954;27;20415;-55
2023/09/25 07:26:04;;;;;;;1.38;0.60;;;13.50;99.90;;;;;;5148708;27;20500;-51
2023/09/25 07:28:32;;;;;;;1.80;0.63;;;13.60;99.90;;;;;;5150723;27;20428;-50
2023/09/25 07:31:00;;;;;;;1.90;0.70;;;13.50;3.20;;;;;;5139105;27;20434;-51
2023/09/25 07:33:28;;;;;;;1.23;0.70;;;13.50;99.90;;;;;;5131452;27;20430;-55
2023/09/25 07:35:55;;;;;;;1.40;0.60;;;13.40;99.90;;;;;;5131236;27;20426;-55
2023/09/25 07:38:23;;;;;;;1.20;0.70;;;13.40;99.90;;;;;;5131788;27;20414;-53
2023/09/25 07:40:52;;;;;;;0.90;0.60;;;13.40;36.50;;;;;;5132266;27;20407;-53
2023/09/25 07:43:20;;;;;;;0.90;0.50;;;13.50;99.90;;;;;;5133996;27;20507;-55
2023/09/25 07:45:49;;;;;;;1.30;0.63;;;13.70;99.90;;;;;;5131820;27;20507;-54
2023/09/25 07:48:17;;;;;;;2.05;0.60;;;13.90;1.00;;;;;;5128667;27;20687;-56
2023/09/25 07:50:45;;;;;;;1.50;0.90;;;14.00;1.00;;;;;;5147322;27;20739;-56
2023/09/25 07:53:12;;;;;;;1.10;0.70;;;14.20;99.90;;;;;;5150816;27;20413;-52
2023/09/25 07:55:40;;;;;;;1.40;0.60;;;14.40;1.00;;;;;;5149037;27;20516;-56
2023/09/25 07:58:11;;;;;;;1.27;0.60;;;14.50;1.00;;;;;;5150385;27;20417;-54
2023/09/25 08:00:44;;;;;;;1.35;0.60;;;14.60;1.00;;;;;;5150921;27;20879;-53
2023/09/25 08:03:15;;;;;;;3.55;0.70;;;14.70;1.00;;;;;;5151576;27;20689;-53
2023/09/25 08:05:42;;;;;;;1.48;0.70;;;14.80;1.00;;;;;;5147284;27;20866;-55
2023/09/25 08:08:12;;;;;;;1.70;0.73;;;14.90;99.90;;;;;;5131645;27;20512;-59
2023/09/25 08:10:41;;;;;;;1.33;0.70;;;14.90;99.90;;;;;;5132767;27;20487;-50
2023/09/25 08:13:10;;;;;;;1.10;0.70;;;14.90;99.90;;;;;;5130922;27;20482;-48
2023/09/25 08:15:37;;;;;;;0.80;0.60;;;14.80;99.90;;;;;;5130288;27;20529;-52
2023/09/25 08:18:05;;;;;;;1.30;0.70;;;14.80;99.90;;;;;;5120631;27;20428;-54
2023/09/25 08:20:32;;;;;;;1.87;0.70;;;14.90;99.90;;;;;;5129768;27;20434;-55
2023/09/25 08:23:00;;;;;;;2.70;0.80;;;14.90;99.90;;;;;;5152431;27;20527;-52
2023/09/25 08:25:27;;;;;;;1.25;0.70;;;15.10;99.90;;;;;;5137557;27;20462;-56
2023/09/25 08:27:54;;;;;;;1.55;0.70;;;15.30;99.90;;;;;;5129023;27;20521;-55
2023/09/25 08:30:23;;;;;;;1.30;0.70;;;15.40;99.90;;;;;;5153482;27;20481;-54
2023/09/25 08:32:50;;;;;;;1.70;0.80;;;15.50;99.90;;;;;;5155076;27;20507;-54
2023/09/25 08:35:18;;;;;;;1.70;0.60;;;15.60;99.90;;;;;;5155449;27;20424;-52
2023/09/25 08:37:45;;;;;;;1.50;0.60;;;15.70;12.90;;;;;;5154904;27;20413;-56
2023/09/25 08:40:13;;;;;;;1.20;0.60;;;15.80;1.00;;;;;;5153543;27;20442;-54
2023/09/25 08:42:41;;;;;;;1.10;0.60;;;15.90;1.00;;;;;;5154662;27;20417;-55
2023/09/25 08:45:09;;;;;;;0.87;0.60;;;15.90;1.00;;;;;;5155674;27;20504;-53
2023/09/25 08:47:39;;;;;;;1.00;0.70;;;16.00;1.00;;;;;;5153143;27;20401;-55
2023/09/25 08:50:09;;;;;;;1.20;0.70;;;16.10;1.00;;;;;;5154144;27;20516;-54
2023/09/25 08:52:36;;;;;;;1.48;0.60;;;16.20;1.00;;;;;;5153541;27;20420;-50
2023/09/25 08:55:05;;;;;;;1.02;0.60;;;16.30;1.00;;;;;;5152981;27;20432;-52
2023/09/25 08:57:32;;;;;;;1.10;0.60;;;16.20;1.00;;;;;;5152249;27;20463;-56
2023/09/25 09:00:03;;;;;;;2.13;0.60;;;16.20;1.00;;;;;;5152976;27;20415;-51
2023/09/25 09:02:30;;;;;;;0.98;0.60;;;16.40;1.00;;;;;;5153217;27;20415;-52
2023/09/25 09:04:59;;;;;;;0.90;0.50;;;16.50;1.00;;;;;;5152369;27;20680;-55
2023/09/25 09:07:26;;;;;;;1.20;0.50;;;16.50;1.00;;;;;;5156646;27;20455;-53
2023/09/25 09:09:53;;;;;;;0.90;0.50;;;16.50;1.00;;;;;;5156722;27;20520;-51
2023/09/25 09:12:20;;;;;;;1.20;0.60;;;16.60;1.00;;;;;;5154474;27;20425;-52
2023/09/25 09:14:48;;;;;;;0.80;0.40;;;16.80;1.00;;;;;;5156972;27;20429;-52
2023/09/25 09:17:15;;;;;;;0.90;0.50;;;16.90;99.90;;;;;;5154504;27;20512;-51
2023/09/25 09:19:53;;;;;;;2.00;0.50;;;17.00;99.90;;;;;;5155711;27;20413;-49
2023/09/25 09:22:22;;;;;;;1.50;0.50;;;17.10;99.90;;;;;;5157909;27;20724;-50
2023/09/25 09:24:51;;;;;;;1.00;0.60;;;17.20;99.90;;;;;;5157514;27;20404;-50
2023/09/25 09:27:21;;;;;;;1.20;0.50;;;17.30;99.90;;;;;;5139409;27;20442;-54
2023/09/25 09:29:52;;;;;;;0.93;0.50;;;17.40;99.90;;;;;;5110167;27;20614;-53
2023/09/25 09:32:19;;;;;;;1.38;0.60;;;17.50;99.90;;;;;;5125361;27;20511;-51
2023/09/25 09:34:49;;;;;;;1.13;0.50;;;17.60;99.90;;;;;;5135108;27;20729;-52
2023/09/25 09:37:18;;;;;;;0.70;0.50;;;17.70;99.90;;;;;;5127439;27;20435;-51
2023/09/25 09:39:52;;;;;;;1.35;0.50;;;17.80;99.90;;;;;;5119352;27;20430;-50
2023/09/25 09:42:21;;;;;;;0.70;0.50;;;17.90;99.90;;;;;;5132951;27;20855;-51
2023/09/25 09:44:49;;;;;;;0.93;0.40;;;18.00;99.90;;;;;;5145373;27;20996;-54
2023/09/25 09:47:21;;;;;;;1.03;0.50;;;18.10;99.90;;;;;;5131824;27;20428;-56
2023/09/25 09:49:49;;;;;;;1.67;0.60;;;18.20;99.90;;;;;;5127999;27;20430;-55
2023/09/25 09:52:19;;;;;;;2.58;0.60;;;18.50;69.00;;;;;;5122490;27;20444;-57
2023/09/25 09:54:50;;;;;;;0.83;0.50;;;18.60;31.60;;;;;;5153800;27;20444;-55
2023/09/25 09:57:19;;;;;;;1.00;0.60;;;18.70;15.10;;;;;;5150616;27;20534;-54
2023/09/25 09:59:48;;;;;;;1.50;0.50;;;18.60;1.00;;;;;;5147203;27;20436;-55
2023/09/25 10:02:17;;;;;;;1.60;0.50;;;18.70;1.00;;;;;;5155022;27;20409;-54
2023/09/25 10:04:45;;;;;;;1.20;0.50;;;19.00;1.00;;;;;;5153443;27;20437;-55
2023/09/25 10:07:14;;;;;;;1.27;0.60;;;19.40;1.00;;;;;;5155602;27;20423;-54
2023/09/25 10:09:57;;;;;;;0.80;0.50;;;19.50;1.00;;;;;;5152021;27;20428;-54
2023/09/25 10:12:49;;;;;;;0.93;0.50;;;19.90;1.00;;;;;;5149546;27;20455;-53
2023/09/25 10:15:21;;;;;;;1.38;0.60;;;20.20;1.00;;;;;;5113525;27;20429;-52
2023/09/25 10:17:49;;;;;;;0.73;0.40;;;20.00;1.00;;;;;;5131748;27;20450;-53
2023/09/25 10:20:33;;;;;;;1.30;0.50;;;20.20;1.00;;;;;;5132718;27;20581;-53
2023/09/25 10:23:08;;;;;;;0.80;0.50;;;20.40;1.00;;;;;;5133891;27;20468;-50
2023/09/25 10:25:48;;;;;;;1.00;0.60;;;20.50;1.00;;;;;;5134046;27;20414;-53
2023/09/25 10:28:22;;;;;;;1.10;0.40;;;20.10;1.00;;;;;;5135877;27;20418;-50
2023/09/25 10:30:51;;;;;;;0.77;0.50;;;20.20;1.00;;;;;;5133350;27;20441;-50
2023/09/25 10:33:19;;;;;;;0.70;0.40;;;20.40;1.00;;;;;;5133170;27;20431;-53
2023/09/25 10:35:48;;;;;;;0.90;0.50;;;20.50;1.00;;;;;;5134097;27;20426;-55
2023/09/25 10:38:19;;;;;;;0.90;0.50;;;20.70;1.00;;;;;;5130708;27;20430;-54
2023/09/25 10:40:49;;;;;;;0.80;0.50;;;20.90;1.00;;;;;;5121672;27;21037;-56
2023/09/25 10:43:18;;;;;;;0.70;0.50;;;21.20;1.00;;;;;;5133326;27;20423;-55
2023/09/25 10:45:46;;;;;;;1.20;0.50;;;21.30;1.00;;;;;;5134638;27;20445;-55
2023/09/25 10:48:14;;;;;;;0.70;0.40;;;21.50;1.00;;;;;;5131677;27;20854;-51
2023/09/25 10:50:43;;;;;;;0.90;0.50;;;21.50;1.00;;;;;;5131954;27;20414;-56
2023/09/25 10:53:11;;;;;;;1.00;0.50;;;21.70;1.00;;;;;;5132897;27;21027;-52
2023/09/25 10:55:39;;;;;;;0.90;0.50;;;21.80;1.00;;;;;;5132112;27;20441;-53
2023/09/25 10:58:09;;;;;;;1.40;0.50;;;22.00;1.00;;;;;;5132575;27;20513;-54
2023/09/25 11:00:39;;;;;;;1.15;0.45;;;21.90;1.00;;;;;;5125048;27;20506;-54
2023/09/25 11:03:07;;;;;;;1.20;0.50;;;22.00;1.00;;;;;;5125963;27;20540;-53
2023/09/25 11:05:36;;;;;;;0.60;0.40;;;22.20;1.00;;;;;;5131197;27;20693;-54
2023/09/25 11:08:05;;;;;;;1.00;0.40;;;22.30;1.00;;;;;;5133421;27;20445;-53
2023/09/25 11:10:35;;;;;;;0.90;0.50;;;22.30;1.00;;;;;;5131390;27;20444;-53
2023/09/25 11:13:03;;;;;;;1.00;0.70;;;22.20;1.00;;;;;;5132381;27;20501;-53
2023/09/25 11:15:37;;;;;;;1.20;0.50;;;22.00;1.00;;;;;;5132025;27;20522;-55
2023/09/25 11:18:07;;;;;;;1.88;0.50;;;21.80;1.00;;;;;;5122944;27;21027;-55
2023/09/25 11:20:37;;;;;;;0.60;0.40;;;22.00;1.00;;;;;;5133147;27;20410;-54
2023/09/25 11:23:06;;;;;;;0.85;0.60;;;22.30;1.00;;;;;;5132556;27;20509;-50
2023/09/25 11:25:41;;;;;;;1.00;0.50;;;22.50;1.00;;;;;;5125159;27;20683;-55
2023/09/25 11:28:09;;;;;;;0.80;0.50;;;22.70;1.00;;;;;;5127636;27;20559;-55
2023/09/25 11:30:40;;;;;;;0.90;0.50;;;23.00;1.00;;;;;;5134373;27;20433;-54
2023/09/25 11:33:08;;;;;;;1.00;0.50;;;23.00;1.00;;;;;;5136450;27;20426;-51
2023/09/25 11:35:37;;;;;;;0.80;0.50;;;23.20;1.00;;;;;;5133281;27;20429;-56
2023/09/25 11:38:13;;;;;;;0.85;0.50;;;22.90;1.00;;;;;;5133954;27;20495;-57
2023/09/25 11:40:40;;;;;;;0.60;0.40;;;22.50;1.00;;;;;;5120749;27;20876;-53
2023/09/25 11:43:09;;;;;;;1.05;0.50;;;22.60;1.00;;;;;;5131070;27;20434;-56
2023/09/25 11:45:38;;;;;;;1.50;0.50;;;22.50;1.00;;;;;;5130867;27;20457;-57
2023/09/25 11:48:06;;;;;;;0.80;0.50;;;22.70;1.00;;;;;;5131846;27;20857;-56
2023/09/25 11:50:34;;;;;;;0.70;0.40;;;22.70;1.00;;;;;;5130484;27;20421;-57
2023/09/25 11:53:01;;;;;;;0.90;0.50;;;22.90;1.00;;;;;;5131524;27;20449;-58
2023/09/25 11:55:29;;;;;;;0.70;0.50;;;23.10;1.00;;;;;;5132288;27;20446;-56
2023/09/25 11:57:58;;;;;;;0.60;0.50;;;23.20;1.00;;;;;;5133531;27;20807;-57
2023/09/25 12:00:27;;;;;;;0.70;0.47;;;23.00;1.00;;;;;;5130780;27;20434;-56
2023/09/25 12:02:56;;;;;;;0.60;0.40;;;22.80;1.00;;;;;;5133345;27;20418;-58
2023/09/25 12:05:24;;;;;;;1.00;0.50;;;22.80;1.00;;;;;;5131445;27;20915;-55
2023/09/25 12:07:52;;;;;;;0.80;0.50;;;22.70;1.00;;;;;;5130372;27;20410;-58
2023/09/25 12:10:19;;;;;;;0.85;0.40;;;22.90;1.00;;;;;;5129364;27;20430;-58
2023/09/25 12:12:48;;;;;;;1.10;0.50;;;22.60;1.00;;;;;;5131805;27;20434;-58
2023/09/25 12:15:17;;;;;;;0.70;0.50;;;22.40;1.00;;;;;;5130049;27;20434;-56
2023/09/25 12:17:45;;;;;;;0.80;0.50;;;21.90;1.00;;;;;;5130821;27;20426;-58
2023/09/25 12:20:14;;;;;;;0.60;0.40;;;21.90;1.00;;;;;;5131108;27;20982;-57
2023/09/25 12:22:42;;;;;;;0.65;0.40;;;22.10;1.00;;;;;;5131911;27;20423;-59
2023/09/25 12:25:11;;;;;;;0.70;0.40;;;22.20;1.00;;;;;;5131767;27;20414;-58
2023/09/25 12:27:40;;;;;;;1.30;0.40;;;22.40;1.00;;;;;;5131603;27;20458;-57
2023/09/25 12:30:09;;;;;;;0.70;0.40;;;22.70;1.00;;;;;;5131357;27;20422;-58
2023/09/25 12:32:37;;;;;;;0.68;0.40;;;22.70;1.00;;;;;;5133183;27;20426;-59
2023/09/25 12:35:05;;;;;;;0.70;0.40;;;22.70;1.00;;;;;;5131985;27;20518;-58
2023/09/25 12:37:34;;;;;;;0.63;0.40;;;22.70;1.00;;;;;;5133297;28;20417;-58
2023/09/25 12:40:02;;;;;;;0.80;0.40;;;22.70;1.00;;;;;;5132306;27;20768;-57
2023/09/25 12:42:29;;;;;;;1.00;0.40;;;22.60;1.00;;;;;;5122171;28;20425;-57
2023/09/25 12:44:56;;;;;;;0.70;0.40;;;22.60;1.00;;;;;;5130827;28;20425;-59
2023/09/25 12:47:26;;;;;;;1.50;0.50;;;22.80;1.00;;;;;;5128948;28;21193;-60
2023/09/25 12:49:54;;;;;;;0.90;0.60;;;23.10;1.00;;;;;;5116568;28;20494;-59
2023/09/25 12:52:21;;;;;;;0.70;0.40;;;23.30;1.00;;;;;;5132235;28;20834;-58
2023/09/25 12:54:50;;;;;;;0.70;0.40;;;23.20;1.00;;;;;;5130942;28;20414;-60
2023/09/25 12:57:18;;;;;;;1.00;0.47;;;23.00;1.00;;;;;;5131716;28;20458;-58
2023/09/25 12:59:45;;;;;;;2.40;0.50;;;22.90;1.00;;;;;;5134052;28;20866;-58